Grafenwoehr, Germany

1:59 AM CEST on September 04, 2015 (GMT +0200)
Grafenwohr Army Air Field | | Change Station
CLOSE
Current Station
Airport
Location: Grafenwoehr,
Elevation: 1362 ft
Nearby Weather Stations

Elev 1362 ft 49.70 °N, 11.94 °E | Updated 10 minutes ago

Fog
Fog
52 °F
Feels Like 52 °F
N
0
Wind Variable Wind from North

Today
High -- | Low -- °F
--% Chance of Precip.
Yesterday
High -- | Low -- °F
Precip. -- in
6:31 AM 7:50 PM
Waning Gibbous, 65% visible
Pressure 29.97 in
Visibility 0.5 miles
Clouds
Dew Point 52 °F
Humidity 100%
Rainfall 0.00 in
Snow Depth Not available.
UV Not available.
Pollen Not available.
Air Quality Not available.
Flu Activity Not available.
SPECI ETIC 032349Z AUTO 00000KT 0800 FG VV001 11/11 A2997 RMK AO2 RVRNO
Pressure 29.97 in
Visibility 0.5 miles
Clouds
Dew Point 52 °F
Humidity 100%
Rainfall 0.00 in
Snow Depth Not available.
UV Not available.
Pollen Not available.
Air Quality Not available.
Flu Activity Not available.
SPECI ETIC 032349Z AUTO 00000KT 0800 FG VV001 11/11 A2997 RMK AO2 RVRNO

10-Day Weather Forecast

×

Almanac

Astronomy

Sep. 04, 2015 Rise Set
Actual Time
Civil Twilight
Nautical Twilight
Astronomical Twilight
Moon
Length of Visible Light
Length of Day
Tomorrow will be .
, % of the Moon is Illuminated

Today's Extremes

Country Highs Country Lows

Community

WunderPhotos

Upload Photos

1,852,063 photos uploaded!

WunderBlogs® & News

Nearby

Air Quality

  Air Quality AQ Index Pollutant
Not available.

Snow Depth

Station Depth Elevation

Earthquake Activity

City Distance Mag. Time & Date
Minimum magnitude displayed is 2.5.

Coastal Water Temperatures

Place Temperature

Stations

Nearby Weather Stations

Station Location Temp. Windchill Dew Point Humidity Wind Precip. Elev Updated Type